createdAt,value
2018-08-06T00:00:49.363Z,14.32
2018-08-06T00:03:22.865Z,14.32
2018-08-06T00:05:53.474Z,14.28
2018-08-06T00:08:24.467Z,14.25
2018-08-06T00:10:54.869Z,14.20
2018-08-06T00:13:26.431Z,14.11
2018-08-06T00:15:56.899Z,14.06
2018-08-06T00:18:27.854Z,14.07
2018-08-06T00:20:57.817Z,14.11
2018-08-06T00:23:27.738Z,14.12
2018-08-06T00:25:58.168Z,14.10
2018-08-06T00:28:28.114Z,14.03
2018-08-06T00:30:58.170Z,13.94
2018-08-06T00:33:28.182Z,13.92
2018-08-06T00:35:58.890Z,13.90
2018-08-06T00:38:28.882Z,13.87
2018-08-06T00:40:58.935Z,13.75
2018-08-06T00:43:28.986Z,13.67
2018-08-06T00:45:59.014Z,13.67
2018-08-06T00:48:29.433Z,13.64
2018-08-06T00:50:59.414Z,13.63
2018-08-06T00:53:29.358Z,13.66
2018-08-06T00:55:59.262Z,13.64
2018-08-06T00:58:29.738Z,13.59
2018-08-06T01:00:59.731Z,13.58
2018-08-06T01:03:29.694Z,13.57
2018-08-06T01:05:59.843Z,13.53
2018-08-06T01:08:29.778Z,13.46
2018-08-06T01:10:59.760Z,13.44
2018-08-06T01:13:30.393Z,13.44
2018-08-06T01:16:00.306Z,13.42
2018-08-06T01:18:30.289Z,13.37
2018-08-06T01:21:00.541Z,13.30
2018-08-06T01:23:31.471Z,13.27
2018-08-06T01:26:01.493Z,13.21
2018-08-06T01:28:31.769Z,13.21
2018-08-06T01:31:01.772Z,13.19
2018-08-06T01:33:31.770Z,13.17
2018-08-06T01:36:02.190Z,13.22
2018-08-06T01:38:32.188Z,13.14
2018-08-06T01:41:02.280Z,13.09
2018-08-06T01:43:32.980Z,13.05
2018-08-06T01:46:02.935Z,13.00
2018-08-06T01:48:32.900Z,13.00
2018-08-06T01:51:03.278Z,12.97
2018-08-06T01:53:33.255Z,12.94
2018-08-06T01:56:03.380Z,12.96
2018-08-06T01:58:33.631Z,12.88
2018-08-06T02:01:03.569Z,12.82
2018-08-06T02:03:33.510Z,12.83
2018-08-06T02:06:03.506Z,12.85
2018-08-06T02:08:33.433Z,12.79
2018-08-06T02:11:03.356Z,12.77
2018-08-06T02:13:35.658Z,12.75
2018-08-06T02:16:05.658Z,12.75
2018-08-06T02:18:35.631Z,12.72
2018-08-06T02:21:06.140Z,12.62
2018-08-06T02:23:36.047Z,12.59
2018-08-06T02:26:07.596Z,12.59
2018-08-06T02:28:37.515Z,12.62
2018-08-06T02:31:07.695Z,12.64
2018-08-06T02:33:37.693Z,12.61
2018-08-06T02:36:08.097Z,12.63
2018-08-06T02:38:38.014Z,12.57
2018-08-06T02:41:07.919Z,12.56
2018-08-06T02:43:38.489Z,12.61
2018-08-06T02:46:08.510Z,12.60
2018-08-06T02:48:38.486Z,12.60
2018-08-06T02:51:08.519Z,12.61
2018-08-06T02:53:38.530Z,12.56
2018-08-06T02:56:08.790Z,12.56
2018-08-06T02:58:39.090Z,12.59
2018-08-06T03:01:09.001Z,12.60
2018-08-06T03:03:38.922Z,12.56
2018-08-06T03:06:08.850Z,12.50
2018-08-06T03:08:38.804Z,12.45
2018-08-06T03:11:08.717Z,12.46
2018-08-06T03:13:39.021Z,12.49
2018-08-06T03:16:09.034Z,12.44
2018-08-06T03:18:39.055Z,12.32
2018-08-06T03:21:09.083Z,12.30
2018-08-06T03:23:39.150Z,12.25
2018-08-06T03:26:09.143Z,12.25
2018-08-06T03:28:39.370Z,12.24
2018-08-06T03:31:09.931Z,12.23
2018-08-06T03:33:39.907Z,12.27
2018-08-06T03:36:10.570Z,12.27
2018-08-06T03:38:40.557Z,12.23
2018-08-06T03:41:10.534Z,12.23
2018-08-06T03:43:40.898Z,12.24
2018-08-06T03:46:14.850Z,12.17
2018-08-06T03:48:44.916Z,12.14
2018-08-06T03:51:14.918Z,12.13
2018-08-06T03:53:45.044Z,12.16
2018-08-06T03:56:18.942Z,12.11
2018-08-06T03:58:51.410Z,12.06
2018-08-06T04:01:21.315Z,11.99
2018-08-06T04:03:51.254Z,12.02
2018-08-06T04:06:21.590Z,12.05
2018-08-06T04:08:51.525Z,12.05
2018-08-06T04:11:22.443Z,12.02
2018-08-06T04:13:52.432Z,12.04
2018-08-06T04:16:22.639Z,12.08
2018-08-06T04:18:52.866Z,12.05
2018-08-06T04:21:22.824Z,12.08
2018-08-06T04:23:53.108Z,12.14
2018-08-06T04:26:23.057Z,12.20
2018-08-06T04:28:53.009Z,12.28
2018-08-06T04:31:23.058Z,12.37
2018-08-06T04:33:54.080Z,12.42
2018-08-06T04:36:24.042Z,12.47
2018-08-06T04:38:53.973Z,12.44
2018-08-06T04:41:24.287Z,12.50
2018-08-06T04:43:54.213Z,12.58
2018-08-06T04:46:24.147Z,12.67
2018-08-06T04:48:54.406Z,12.76
2018-08-06T04:51:24.563Z,12.86
2018-08-06T04:53:55.537Z,12.92
2018-08-06T04:56:25.838Z,12.99
2018-08-06T04:59:00.168Z,13.08
2018-08-06T05:01:32.430Z,13.18
2018-08-06T05:04:06.786Z,13.28
2018-08-06T05:06:39.172Z,13.39
2018-08-06T05:09:11.386Z,13.49
2018-08-06T05:11:42.514Z,13.62
2018-08-06T05:14:12.443Z,13.77
2018-08-06T05:16:42.382Z,13.89
2018-08-06T05:19:12.676Z,14.04
2018-08-06T05:21:42.623Z,14.18
2018-08-06T05:24:12.606Z,14.37
2018-08-06T05:26:42.553Z,14.54
2018-08-06T05:29:12.528Z,14.70
2018-08-06T05:31:42.847Z,14.88
2018-08-06T05:34:12.946Z,15.03
2018-08-06T05:36:43.376Z,15.19
2018-08-06T05:39:13.445Z,15.37
2018-08-06T05:41:44.147Z,15.54
2018-08-06T05:44:15.146Z,15.74
2018-08-06T05:47:59.485Z,15.92
2018-08-06T05:50:29.963Z,16.15
2018-08-06T05:52:59.997Z,16.33
2018-08-06T05:55:33.548Z,16.50
2018-08-06T05:58:04.299Z,16.69
2018-08-06T06:00:34.210Z,16.84
2018-08-06T06:03:05.110Z,17.03
2018-08-06T06:05:36.123Z,17.15
2018-08-06T06:08:06.489Z,17.31
2018-08-06T06:10:36.496Z,17.50
2018-08-06T06:13:06.626Z,17.73
2018-08-06T06:15:38.966Z,17.91
2018-08-06T06:18:08.902Z,18.05
2018-08-06T06:20:38.819Z,18.10
2018-08-06T06:23:09.047Z,18.20
2018-08-06T06:25:41.315Z,18.45
2018-08-06T06:28:17.362Z,18.70
2018-08-06T06:30:52.049Z,18.96
2018-08-06T06:33:22.031Z,19.18
2018-08-06T06:36:06.374Z,19.42
2018-08-06T06:38:37.137Z,19.65
2018-08-06T06:41:08.706Z,19.87
2018-08-06T06:43:40.821Z,20.06
2018-08-06T06:46:10.926Z,20.23
2018-08-06T06:48:40.925Z,20.37
2018-08-06T06:51:10.942Z,20.64
2018-08-06T06:53:40.834Z,20.83
2018-08-06T06:56:10.770Z,21.02
2018-08-06T06:58:40.761Z,21.16
2018-08-06T07:01:12.504Z,21.34
2018-08-06T07:04:01.137Z,21.43
2018-08-06T07:06:32.178Z,21.68
2018-08-06T07:09:02.143Z,21.87
2018-08-06T07:11:32.043Z,22.14
2018-08-06T07:14:01.978Z,22.33
2018-08-06T07:16:32.589Z,22.23
2018-08-06T07:19:06.769Z,22.32
2018-08-06T07:21:37.750Z,22.41
2018-08-06T07:24:09.428Z,22.61
2018-08-06T07:26:40.675Z,22.72
2018-08-06T07:29:11.410Z,22.67
2018-08-06T07:31:43.473Z,22.60
2018-08-06T07:34:14.034Z,22.71
2018-08-06T07:36:44.033Z,22.81
2018-08-06T07:39:14.927Z,22.86
2018-08-06T07:41:45.749Z,22.87
2018-08-06T07:44:15.643Z,22.73
2018-08-06T07:46:47.096Z,22.59
2018-08-06T07:49:18.224Z,22.66
2018-08-06T07:51:49.234Z,22.91
2018-08-06T07:54:19.839Z,23.02
2018-08-06T07:56:49.741Z,22.93
2018-08-06T07:59:19.745Z,22.80
2018-08-06T08:01:50.250Z,22.89
2018-08-06T08:04:20.670Z,23.07
2018-08-06T08:06:51.827Z,23.16
2018-08-06T08:09:22.098Z,23.15
2018-08-06T08:11:52.900Z,23.08
2018-08-06T08:14:22.886Z,23.28
2018-08-06T08:16:52.902Z,23.33
2018-08-06T08:19:23.834Z,23.26
2018-08-06T08:21:53.906Z,23.40
2018-08-06T08:24:23.826Z,23.41
2018-08-06T08:26:54.866Z,23.29
2018-08-06T08:29:24.803Z,23.17
2018-08-06T08:31:54.808Z,23.36
2018-08-06T08:34:26.511Z,23.26
2018-08-06T08:36:57.383Z,23.12
2018-08-06T08:39:28.939Z,23.26
2018-08-06T08:42:02.347Z,23.36
2018-08-06T08:44:32.725Z,23.32
2018-08-06T08:47:02.700Z,23.31
2018-08-06T08:49:32.658Z,23.39
2018-08-06T08:52:03.592Z,23.47
2018-08-06T08:54:33.542Z,23.58
2018-08-06T08:57:04.402Z,23.57
2018-08-06T08:59:35.854Z,23.40
2018-08-06T09:02:06.659Z,23.39
2018-08-06T09:04:36.802Z,23.47
2018-08-06T09:07:07.577Z,23.57
2018-08-06T09:09:38.762Z,23.47
2018-08-06T09:12:11.236Z,23.46
2018-08-06T09:14:42.827Z,23.50
2018-08-06T09:17:15.859Z,23.60
2018-08-06T09:19:46.972Z,23.59
2018-08-06T09:22:17.012Z,23.49
2018-08-06T09:24:47.019Z,23.44
2018-08-06T09:27:17.858Z,23.52
2018-08-06T09:29:51.296Z,23.60
2018-08-06T09:32:21.237Z,23.69
2018-08-06T09:34:51.262Z,23.69
2018-08-06T09:37:22.153Z,23.65
2018-08-06T09:39:53.782Z,23.70
2018-08-06T09:42:26.569Z,23.70
2018-08-06T09:44:56.574Z,23.74
2018-08-06T09:47:28.407Z,23.63
2018-08-06T09:50:00.816Z,23.50
2018-08-06T09:52:32.431Z,23.53
2018-08-06T09:55:11.737Z,23.64
2018-08-06T09:57:43.202Z,23.88
2018-08-06T10:00:21.640Z,23.92
2018-08-06T10:02:52.550Z,23.96
2018-08-06T10:05:23.477Z,24.00
2018-08-06T10:07:56.359Z,24.11
2018-08-06T10:10:26.841Z,24.19
2018-08-06T10:12:56.802Z,24.17
2018-08-06T10:15:27.193Z,24.30
2018-08-06T10:18:04.439Z,24.44
2018-08-06T10:20:42.461Z,24.52
2018-08-06T10:23:26.243Z,24.63
2018-08-06T10:26:06.698Z,24.54
2018-08-06T10:28:43.634Z,24.50
2018-08-06T10:31:14.838Z,24.51
2018-08-06T10:33:46.796Z,24.64
2018-08-06T10:36:26.573Z,24.82
2018-08-06T10:39:04.109Z,24.91
2018-08-06T10:41:41.938Z,25.14
2018-08-06T10:44:14.897Z,25.51
2018-08-06T10:46:44.853Z,25.61
2018-08-06T10:49:18.627Z,25.63
2018-08-06T10:52:03.167Z,25.63
2018-08-06T10:57:40.433Z,25.60
2018-08-06T11:00:19.954Z,25.66
2018-08-06T11:02:53.158Z,25.72
2018-08-06T11:05:25.058Z,25.68
2018-08-06T11:07:58.406Z,25.75
2018-08-06T11:10:31.051Z,25.92
2018-08-06T11:13:04.003Z,26.13
2018-08-06T11:15:37.159Z,26.20
2018-08-06T11:18:07.710Z,26.26
2018-08-06T11:20:38.479Z,26.33
2018-08-06T11:23:10.145Z,26.31
2018-08-06T11:25:40.142Z,26.25
2018-08-06T11:28:10.908Z,26.36
2018-08-06T11:30:43.637Z,26.48
2018-08-06T11:33:15.013Z,26.64
2018-08-06T11:35:46.303Z,26.71
2018-08-06T11:38:16.669Z,26.73
2018-08-06T11:40:49.991Z,26.75
2018-08-06T11:43:21.370Z,26.84
2018-08-06T11:45:52.387Z,27.00
2018-08-06T11:48:22.418Z,26.92
2018-08-06T11:51:01.399Z,26.90
2018-08-06T11:53:31.564Z,26.88
2018-08-06T11:56:02.446Z,26.85
2018-08-06T11:58:43.314Z,26.91
2018-08-06T12:01:17.193Z,26.99
2018-08-06T12:03:47.390Z,27.15
2018-08-06T12:06:17.985Z,27.22
2018-08-06T12:08:48.722Z,27.23
2018-08-06T12:11:42.102Z,27.17
2018-08-06T12:14:20.146Z,27.21
2018-08-06T12:16:50.878Z,27.31
2018-08-06T12:19:21.852Z,27.36
2018-08-06T12:21:53.690Z,27.10
2018-08-06T12:24:23.860Z,27.25
2018-08-06T12:26:54.624Z,27.20
2018-08-06T12:29:26.913Z,27.16
2018-08-06T12:31:58.859Z,27.08
2018-08-06T12:34:29.105Z,27.16
2018-08-06T12:37:01.067Z,27.10
2018-08-06T12:39:32.234Z,27.14
2018-08-06T12:42:07.266Z,27.22
2018-08-06T12:44:38.100Z,27.32
2018-08-06T12:47:10.654Z,27.20
2018-08-06T12:49:43.512Z,27.20
2018-08-06T12:52:13.718Z,27.17
2018-08-06T12:54:43.807Z,27.16
2018-08-06T12:57:13.800Z,27.29
2018-08-06T12:59:46.074Z,27.18
2018-08-06T13:02:17.754Z,27.37
2018-08-06T13:05:09.315Z,27.48
2018-08-06T13:07:45.309Z,27.26
2018-08-06T13:10:16.393Z,27.23
2018-08-06T13:12:48.188Z,27.28
2018-08-06T13:15:19.363Z,27.31
2018-08-06T13:17:51.142Z,27.37
2018-08-06T13:20:26.769Z,27.56
2018-08-06T13:22:57.288Z,27.52
2018-08-06T13:25:30.482Z,27.62
2018-08-06T13:28:01.825Z,27.75
2018-08-06T13:30:33.681Z,27.76
2018-08-06T13:33:04.375Z,27.70
2018-08-06T13:35:34.452Z,27.80
2018-08-06T13:38:08.618Z,27.81
2018-08-06T13:40:39.663Z,27.77
2018-08-06T13:43:11.289Z,27.76
2018-08-06T13:45:46.582Z,27.78
2018-08-06T13:48:18.524Z,28.02
2018-08-06T13:50:49.303Z,28.19
2018-08-06T13:53:19.818Z,28.43
2018-08-06T13:55:49.845Z,28.49
2018-08-06T13:58:21.700Z,28.66
2018-08-06T14:00:52.126Z,28.66
2018-08-06T14:03:22.156Z,28.73
2018-08-06T14:05:52.887Z,28.83
2018-08-06T14:08:24.223Z,28.80
2018-08-06T14:10:54.166Z,28.97
2018-08-06T14:13:25.809Z,29.18
2018-08-06T14:15:56.408Z,29.32
2018-08-06T14:18:28.622Z,29.42
2018-08-06T14:20:59.311Z,29.33
2018-08-06T14:23:30.628Z,29.60
2018-08-06T14:26:01.513Z,29.53
2018-08-06T14:28:31.503Z,29.92
2018-08-06T14:31:02.173Z,29.92
2018-08-06T14:33:35.878Z,29.96
2018-08-06T14:36:08.766Z,30.17
2018-08-06T14:38:40.001Z,30.17
2018-08-06T14:41:11.282Z,30.37
2018-08-06T14:43:43.372Z,30.61
2018-08-06T14:46:13.893Z,30.73
2018-08-06T14:48:45.954Z,30.82
2018-08-06T14:51:15.954Z,31.08
2018-08-06T14:53:47.342Z,31.30
2018-08-06T14:56:18.334Z,31.30
2018-08-06T14:58:48.257Z,31.46
2018-08-06T15:01:18.625Z,31.63
2018-08-06T15:03:48.562Z,31.75
2018-08-06T15:06:18.621Z,31.66
2018-08-06T15:08:49.610Z,31.88
2018-08-06T15:11:24.424Z,32.12
2018-08-06T15:16:38.311Z,32.03
2018-08-06T15:19:08.902Z,31.77
2018-08-06T15:21:39.910Z,31.47
2018-08-06T15:24:11.291Z,31.52
2018-08-06T15:26:41.378Z,31.54
2018-08-06T15:29:12.701Z,31.50
2018-08-06T15:31:46.213Z,31.59
2018-08-06T15:34:17.057Z,31.62
2018-08-06T15:36:50.217Z,31.51
2018-08-06T15:39:21.029Z,31.51
2018-08-06T15:41:51.920Z,31.48
2018-08-06T15:44:22.778Z,31.61
2018-08-06T15:46:53.653Z,31.67
2018-08-06T15:49:23.765Z,31.85
2018-08-06T15:52:02.476Z,31.83
2018-08-06T15:54:33.553Z,31.97
2018-08-06T15:59:42.534Z,32.26
2018-08-06T16:02:15.734Z,32.06
2018-08-06T16:04:50.316Z,31.92
2018-08-06T16:07:22.531Z,31.82
2018-08-06T16:09:54.978Z,31.66
2018-08-06T16:12:25.378Z,31.69
2018-08-06T16:14:56.013Z,31.64
2018-08-06T16:17:28.281Z,31.68
2018-08-06T16:20:03.141Z,31.76
2018-08-06T16:22:39.089Z,31.81
2018-08-06T16:25:12.134Z,31.45
2018-08-06T16:27:42.471Z,31.36
2018-08-06T16:30:30.354Z,31.43
2018-08-06T16:33:05.320Z,31.28
2018-08-06T16:35:39.440Z,30.99
2018-08-06T16:38:10.491Z,30.95
2018-08-06T16:40:42.050Z,30.85
2018-08-06T16:43:15.236Z,30.43
2018-08-06T16:45:46.810Z,30.34
2018-08-06T16:48:17.774Z,30.14
2018-08-06T16:50:50.084Z,29.88
2018-08-06T16:53:20.575Z,29.66
2018-08-06T16:55:50.879Z,29.59
2018-08-06T16:58:20.877Z,29.41
2018-08-06T17:00:51.446Z,29.28
2018-08-06T17:03:23.863Z,29.09
2018-08-06T17:05:57.570Z,28.86
2018-08-06T17:08:30.720Z,28.75
2018-08-06T17:11:06.387Z,28.66
2018-08-06T17:13:40.346Z,28.53
2018-08-06T17:16:13.861Z,28.36
2018-08-06T17:18:46.408Z,28.23
2018-08-06T17:21:20.394Z,28.12
2018-08-06T17:23:55.284Z,27.97
2018-08-06T17:26:26.302Z,27.79
2018-08-06T17:28:58.767Z,27.66
2018-08-06T17:31:46.763Z,27.55
2018-08-06T17:34:17.485Z,27.39
2018-08-06T17:36:49.942Z,27.23
2018-08-06T17:39:21.571Z,27.11
2018-08-06T17:41:53.166Z,27.01
2018-08-06T17:44:26.382Z,26.88
2018-08-06T17:46:58.737Z,26.81
2018-08-06T17:49:29.244Z,26.71
2018-08-06T17:52:02.180Z,26.62
2018-08-06T17:54:35.523Z,26.49
2018-08-06T17:57:06.721Z,26.40
2018-08-06T17:59:41.041Z,26.28
2018-08-06T18:02:15.286Z,26.18
2018-08-06T18:04:45.773Z,26.08
2018-08-06T18:07:18.104Z,25.97
2018-08-06T18:09:50.754Z,25.85
2018-08-06T18:12:21.402Z,25.70
2018-08-06T18:14:52.546Z,25.55
2018-08-06T18:17:25.208Z,25.36
2018-08-06T18:19:57.403Z,25.20
2018-08-06T18:22:31.877Z,25.14
2018-08-06T18:25:04.649Z,25.03
2018-08-06T18:27:35.319Z,24.86
2018-08-06T18:30:14.398Z,24.73
2018-08-06T18:32:44.972Z,24.56
2018-08-06T18:35:17.400Z,24.36
2018-08-06T18:37:47.437Z,24.14
2018-08-06T18:40:18.784Z,24.02
2018-08-06T18:42:48.717Z,23.94
2018-08-06T18:45:20.679Z,23.81
2018-08-06T18:47:52.684Z,23.67
2018-08-06T18:50:23.216Z,23.49
2018-08-06T18:52:53.270Z,23.30
2018-08-06T18:55:25.497Z,23.21
2018-08-06T18:57:57.058Z,23.14
2018-08-06T19:00:27.973Z,23.07
2018-08-06T19:03:00.535Z,22.97
2018-08-06T19:05:31.040Z,22.85
2018-08-06T19:08:03.521Z,22.74
2018-08-06T19:10:34.475Z,22.56
2018-08-06T19:13:09.476Z,22.50
2018-08-06T19:15:41.407Z,22.40
2018-08-06T19:18:17.175Z,22.32
2018-08-06T19:20:48.290Z,22.14
2018-08-06T19:23:19.830Z,22.04
2018-08-06T19:25:50.523Z,21.94
2018-08-06T19:28:20.458Z,21.79
2018-08-06T19:30:58.279Z,21.73
2018-08-06T19:33:30.294Z,21.76
2018-08-06T19:36:03.666Z,21.69
2018-08-06T19:38:34.326Z,21.62
2018-08-06T19:41:06.035Z,21.55
2018-08-06T19:43:39.228Z,21.44
2018-08-06T19:46:10.446Z,21.30
2018-08-06T19:48:42.261Z,21.10
2018-08-06T19:51:14.246Z,21.04
2018-08-06T19:53:45.997Z,20.98
2018-08-06T19:56:19.543Z,20.88
2018-08-06T19:58:50.587Z,20.80
2018-08-06T20:01:21.922Z,20.62
2018-08-06T20:03:53.224Z,20.54
2018-08-06T20:06:23.549Z,20.49
2018-08-06T20:08:54.396Z,20.43
2018-08-06T20:11:25.333Z,20.30
2018-08-06T20:13:58.229Z,20.24
2018-08-06T20:16:30.504Z,20.14
2018-08-06T20:19:04.396Z,20.07
2018-08-06T20:21:36.927Z,19.99
2018-08-06T20:24:13.375Z,19.96
2018-08-06T20:26:43.957Z,19.93
2018-08-06T20:29:17.805Z,19.87
2018-08-06T20:31:48.257Z,19.78
2018-08-06T20:34:18.190Z,19.71
2018-08-06T20:36:48.380Z,19.68
2018-08-06T20:39:20.340Z,19.60
2018-08-06T20:41:50.910Z,19.57
2018-08-06T20:44:21.592Z,19.55
2018-08-06T20:46:53.822Z,19.51
2018-08-06T20:49:24.914Z,19.53
2018-08-06T20:51:55.848Z,19.57
2018-08-06T20:54:28.627Z,19.61
2018-08-06T20:56:58.654Z,19.79
2018-08-06T20:59:29.829Z,19.89
2018-08-06T21:02:02.301Z,19.93
2018-08-06T21:04:33.978Z,20.11
2018-08-06T21:07:06.534Z,20.28
2018-08-06T21:09:37.958Z,20.40
2018-08-06T21:12:11.624Z,20.55
2018-08-06T21:14:44.054Z,20.48
2018-08-06T21:17:14.409Z,20.47
2018-08-06T21:19:45.776Z,20.41
2018-08-06T21:22:16.833Z,20.43
2018-08-06T21:24:46.760Z,20.45
2018-08-06T21:27:17.755Z,20.43
2018-08-06T21:29:49.891Z,20.56
2018-08-06T21:32:19.872Z,20.70
2018-08-06T21:34:51.391Z,20.73
2018-08-06T21:37:21.385Z,20.78
2018-08-06T21:39:54.273Z,20.86
2018-08-06T21:42:25.770Z,20.90
2018-08-06T21:44:55.789Z,20.93
2018-08-06T21:47:26.244Z,21.08
2018-08-06T21:49:56.374Z,21.19
2018-08-06T21:52:28.512Z,21.17
2018-08-06T21:54:59.065Z,21.25
2018-08-06T21:57:29.097Z,21.32
2018-08-06T22:00:00.962Z,21.30
2018-08-06T22:02:32.977Z,21.29
2018-08-06T22:05:06.797Z,21.29
2018-08-06T22:07:36.757Z,21.33
2018-08-06T22:10:08.726Z,21.34
2018-08-06T22:12:39.238Z,21.29
2018-08-06T22:15:11.590Z,21.28
2018-08-06T22:17:41.610Z,21.29
2018-08-06T22:20:12.352Z,21.26
2018-08-06T22:22:42.363Z,21.25
2018-08-06T22:25:13.147Z,21.23
2018-08-06T22:27:44.154Z,21.23
2018-08-06T22:30:14.715Z,21.24
2018-08-06T22:32:46.298Z,21.21
2018-08-06T22:35:17.315Z,21.17
2018-08-06T22:37:47.245Z,21.14
2018-08-06T22:40:17.342Z,21.19
2018-08-06T22:42:48.237Z,21.23
2018-08-06T22:45:18.209Z,21.27
2018-08-06T22:47:48.225Z,21.27
2018-08-06T22:50:18.596Z,21.22
2018-08-06T22:52:49.646Z,21.28
2018-08-06T22:55:19.625Z,21.29
2018-08-06T22:57:50.290Z,21.32
2018-08-06T23:00:21.775Z,21.35
2018-08-06T23:02:54.814Z,21.34
2018-08-06T23:05:24.962Z,21.29
2018-08-06T23:07:56.367Z,21.38
2018-08-06T23:10:26.344Z,21.44
2018-08-06T23:12:56.275Z,21.45
2018-08-06T23:15:27.930Z,21.44
2018-08-06T23:17:57.961Z,21.40
2018-08-06T23:20:27.900Z,21.39
2018-08-06T23:22:57.791Z,21.31
2018-08-06T23:25:29.229Z,21.24
2018-08-06T23:28:00.082Z,21.20
2018-08-06T23:30:30.051Z,21.21
2018-08-06T23:33:00.257Z,21.24
2018-08-06T23:35:31.855Z,21.25
2018-08-06T23:38:01.815Z,21.31
2018-08-06T23:40:31.773Z,21.36
2018-08-06T23:43:02.269Z,21.29
2018-08-06T23:45:32.222Z,21.30
2018-08-06T23:48:02.201Z,21.31
2018-08-06T23:50:33.653Z,21.24
2018-08-06T23:53:04.685Z,21.31
2018-08-06T23:55:36.177Z,21.29
2018-08-06T23:58:07.448Z,21.30
